sensor_id;sensor_type;location;lat;lon;timestamp;pressure;altitude;pressure_sealevel;temperature;humidity
66857;BME280;53766;50.280;19.160;2022-09-24T00:01:46;98568.84;;;20.02;43.00
66857;BME280;53766;50.280;19.160;2022-09-24T00:04:14;98561.88;;;20.01;42.91
66857;BME280;53766;50.280;19.160;2022-09-24T00:06:43;98560.22;;;20.00;43.07
66857;BME280;53766;50.280;19.160;2022-09-24T00:09:16;98555.69;;;20.01;43.09
66857;BME280;53766;50.280;19.160;2022-09-24T00:11:45;98553.22;;;19.99;42.93
66857;BME280;53766;50.280;19.160;2022-09-24T00:14:13;98554.84;;;20.00;42.92
66857;BME280;53766;50.280;19.160;2022-09-24T00:16:42;98554.84;;;20.00;42.85
66857;BME280;53766;50.280;19.160;2022-09-24T00:19:11;98551.56;;;19.98;42.90
66857;BME280;53766;50.280;19.160;2022-09-24T00:21:40;98546.22;;;19.98;43.02
66857;BME280;53766;50.280;19.160;2022-09-24T00:24:13;98540.88;;;19.98;43.04
66857;BME280;53766;50.280;19.160;2022-09-24T00:27:03;98545.22;;;19.99;43.03
66857;BME280;53766;50.280;19.160;2022-09-24T00:29:32;98540.06;;;19.98;42.95
66857;BME280;53766;50.280;19.160;2022-09-24T00:32:00;98535.53;;;19.98;43.28
66857;BME280;53766;50.280;19.160;2022-09-24T00:34:28;98531.84;;;19.99;42.99
66857;BME280;53766;50.280;19.160;2022-09-24T00:36:56;98524.03;;;19.98;43.08
66857;BME280;53766;50.280;19.160;2022-09-24T00:39:24;98530.19;;;19.98;43.02
66857;BME280;53766;50.280;19.160;2022-09-24T00:41:51;98528.56;;;19.97;43.02
66857;BME280;53766;50.280;19.160;2022-09-24T00:49:38;98522.59;;;19.95;42.92
66857;BME280;53766;50.280;19.160;2022-09-24T00:52:07;98514.59;;;19.95;42.98
66857;BME280;53766;50.280;19.160;2022-09-24T00:54:35;98514.59;;;19.95;42.99
66857;BME280;53766;50.280;19.160;2022-09-24T00:57:03;98519.94;;;19.95;43.09
66857;BME280;53766;50.280;19.160;2022-09-24T00:59:31;98513.97;;;19.93;43.21
66857;BME280;53766;50.280;19.160;2022-09-24T01:01:59;98510.25;;;19.94;42.96
66857;BME280;53766;50.280;19.160;2022-09-24T01:04:27;98507.59;;;19.94;42.89
66857;BME280;53766;50.280;19.160;2022-09-24T01:06:55;98507.59;;;19.94;43.04
66857;BME280;53766;50.280;19.160;2022-09-24T01:09:25;98500.63;;;19.93;42.96
66857;BME280;53766;50.280;19.160;2022-09-24T01:35:04;98475.94;;;19.91;43.07
66857;BME280;53766;50.280;19.160;2022-09-24T01:37:35;98474.28;;;19.90;42.99
66857;BME280;53766;50.280;19.160;2022-09-24T01:40:05;98463.59;;;19.90;42.98
66857;BME280;53766;50.280;19.160;2022-09-24T01:42:36;98461.16;;;19.88;43.04
66857;BME280;53766;50.280;19.160;2022-09-24T01:45:06;98460.94;;;19.90;42.99
66857;BME280;53766;50.280;19.160;2022-09-24T01:47:36;98452.31;;;19.88;42.91
66857;BME280;53766;50.280;19.160;2022-09-24T01:50:08;98456.63;;;19.89;43.19
66857;BME280;53766;50.280;19.160;2022-09-24T01:52:45;98458.69;;;19.87;42.77
66857;BME280;53766;50.280;19.160;2022-09-24T01:55:18;98464.84;;;19.87;42.96
66857;BME280;53766;50.280;19.160;2022-09-24T01:57:51;98457.03;;;19.86;42.89
66857;BME280;53766;50.280;19.160;2022-09-24T02:00:21;98450.69;;;19.87;43.01
66857;BME280;53766;50.280;19.160;2022-09-24T02:02:57;98458.69;;;19.87;42.96
66857;BME280;53766;50.280;19.160;2022-09-24T02:05:58;98457.88;;;19.86;43.17
66857;BME280;53766;50.280;19.160;2022-09-24T02:08:37;98446.34;;;19.86;42.87
66857;BME280;53766;50.280;19.160;2022-09-24T02:11:09;98455.22;;;19.86;42.99
66857;BME280;53766;50.280;19.160;2022-09-24T02:13:48;98457.03;;;19.86;43.20
66857;BME280;53766;50.280;19.160;2022-09-24T02:16:21;98466.09;;;19.85;43.21
66857;BME280;53766;50.280;19.160;2022-09-24T02:18:55;98464.47;;;19.84;42.98
66857;BME280;53766;50.280;19.160;2022-09-24T02:21:25;98466.09;;;19.85;42.95
66857;BME280;53766;50.280;19.160;2022-09-24T02:23:58;98463.63;;;19.83;43.00
66857;BME280;53766;50.280;19.160;2022-09-24T02:26:28;98468.16;;;19.83;42.91
66857;BME280;53766;50.280;19.160;2022-09-24T02:28:56;98467.16;;;19.84;42.93
66857;BME280;53766;50.280;19.160;2022-09-24T02:31:34;98462.00;;;19.82;42.83
66857;BME280;53766;50.280;19.160;2022-09-24T02:34:08;98461.19;;;19.82;42.95
66857;BME280;53766;50.280;19.160;2022-09-24T02:36:50;98455.84;;;19.82;43.03
66857;BME280;53766;50.280;19.160;2022-09-24T02:39:18;98460.16;;;19.83;42.99
66857;BME280;53766;50.280;19.160;2022-09-24T02:41:47;98449.66;;;19.81;43.02
66857;BME280;53766;50.280;19.160;2022-09-24T02:44:16;98458.53;;;19.82;42.95
66857;BME280;53766;50.280;19.160;2022-09-24T02:46:45;98447.22;;;19.80;42.92
66857;BME280;53766;50.280;19.160;2022-09-24T02:49:13;98460.59;;;19.80;43.12
66857;BME280;53766;50.280;19.160;2022-09-24T02:51:41;98457.06;;;19.79;42.90
66857;BME280;53766;50.280;19.160;2022-09-24T02:54:09;98457.06;;;19.79;42.94
66857;BME280;53766;50.280;19.160;2022-09-24T02:56:37;98459.75;;;19.79;43.00
66857;BME280;53766;50.280;19.160;2022-09-24T02:59:05;98456.25;;;19.79;42.99
66857;BME280;53766;50.280;19.160;2022-09-24T03:01:34;98450.91;;;19.79;43.11
66857;BME280;53766;50.280;19.160;2022-09-24T03:04:02;98458.94;;;19.79;42.90
66857;BME280;53766;50.280;19.160;2022-09-24T03:06:30;98454.63;;;19.78;42.81
66857;BME280;53766;50.280;19.160;2022-09-24T03:08:58;98457.50;;;19.76;43.07
66857;BME280;53766;50.280;19.160;2022-09-24T03:11:27;98452.97;;;19.77;43.01
66857;BME280;53766;50.280;19.160;2022-09-24T03:13:55;98446.00;;;19.76;42.89
66857;BME280;53766;50.280;19.160;2022-09-24T03:16:22;98448.69;;;19.76;42.94
66857;BME280;53766;50.280;19.160;2022-09-24T03:18:49;98440.66;;;19.76;42.97
66857;BME280;53766;50.280;19.160;2022-09-24T03:21:20;98448.88;;;19.74;43.07
66857;BME280;53766;50.280;19.160;2022-09-24T03:23:48;98440.66;;;19.76;42.84
66857;BME280;53766;50.280;19.160;2022-09-24T03:26:16;98449.69;;;19.75;43.06
66857;BME280;53766;50.280;19.160;2022-09-24T03:28:44;98455.03;;;19.75;42.94
66857;BME280;53766;50.280;19.160;2022-09-24T03:31:12;98444.34;;;19.75;42.96
66857;BME280;53766;50.280;19.160;2022-09-24T03:33:43;98448.88;;;19.74;42.94
66857;BME280;53766;50.280;19.160;2022-09-24T03:38:44;98445.41;;;19.73;43.10
66857;BME280;53766;50.280;19.160;2022-09-24T03:41:12;98444.78;;;19.71;42.92
66857;BME280;53766;50.280;19.160;2022-09-24T03:43:40;98445.59;;;19.72;42.59
66857;BME280;53766;50.280;19.160;2022-09-24T03:46:12;98450.13;;;19.71;42.94
66857;BME280;53766;50.280;19.160;2022-09-24T03:48:40;98444.78;;;19.71;42.94
66857;BME280;53766;50.280;19.160;2022-09-24T03:51:14;98450.13;;;19.71;42.80
66857;BME280;53766;50.280;19.160;2022-09-24T03:53:42;98443.13;;;19.70;42.98
66857;BME280;53766;50.280;19.160;2022-09-24T03:56:10;98450.13;;;19.71;42.83
66857;BME280;53766;50.280;19.160;2022-09-24T03:58:39;98443.97;;;19.71;43.02
66857;BME280;53766;50.280;19.160;2022-09-24T04:01:08;98443.13;;;19.70;42.92
66857;BME280;53766;50.280;19.160;2022-09-24T04:03:36;98446.00;;;19.69;42.82
66857;BME280;53766;50.280;19.160;2022-09-24T04:06:04;98445.00;;;19.70;42.95
66857;BME280;53766;50.280;19.160;2022-09-24T04:08:32;98442.31;;;19.70;42.71
66857;BME280;53766;50.280;19.160;2022-09-24T04:11:00;98446.84;;;19.69;42.82
66857;BME280;53766;50.280;19.160;2022-09-24T04:13:27;98445.16;;;19.68;42.94
66857;BME280;53766;50.280;19.160;2022-09-24T04:16:00;98445.16;;;19.68;42.80
66857;BME280;53766;50.280;19.160;2022-09-24T04:18:28;98439.81;;;19.68;42.90
66857;BME280;53766;50.280;19.160;2022-09-24T04:21:00;98447.84;;;19.68;42.73
66857;BME280;53766;50.280;19.160;2022-09-24T04:23:27;98449.69;;;19.68;43.01
66857;BME280;53766;50.280;19.160;2022-09-24T04:25:58;98442.72;;;19.67;42.92
66857;BME280;53766;50.280;19.160;2022-09-24T04:28:28;98441.91;;;19.66;42.78
66857;BME280;53766;50.280;19.160;2022-09-24T04:30:56;98435.72;;;19.66;42.84
66857;BME280;53766;50.280;19.160;2022-09-24T04:33:25;98438.38;;;19.66;42.72
66857;BME280;53766;50.280;19.160;2022-09-24T04:35:52;98425.88;;;19.66;42.87
66857;BME280;53766;50.280;19.160;2022-09-24T04:38:19;98434.91;;;19.65;42.93
66857;BME280;53766;50.280;19.160;2022-09-24T04:40:47;98433.28;;;19.64;42.88
66857;BME280;53766;50.280;19.160;2022-09-24T04:43:15;98435.97;;;19.64;42.76
66857;BME280;53766;50.280;19.160;2022-09-24T04:45:45;98420.94;;;19.63;42.88
66857;BME280;53766;50.280;19.160;2022-09-24T04:48:13;98421.56;;;19.65;42.86
66857;BME280;53766;50.280;19.160;2022-09-24T04:50:41;98421.75;;;19.64;42.87
66857;BME280;53766;50.280;19.160;2022-09-24T04:53:12;98409.44;;;19.63;42.90
66857;BME280;53766;50.280;19.160;2022-09-24T04:55:40;98410.25;;;19.63;42.84
66857;BME280;53766;50.280;19.160;2022-09-24T04:58:08;98412.94;;;19.63;42.79
66857;BME280;53766;50.280;19.160;2022-09-24T05:00:36;98405.97;;;19.62;42.84
66857;BME280;53766;50.280;19.160;2022-09-24T05:03:04;98411.31;;;19.62;42.82
66857;BME280;53766;50.280;19.160;2022-09-24T05:05:33;98411.31;;;19.62;42.88
66857;BME280;53766;50.280;19.160;2022-09-24T05:08:02;98410.25;;;19.63;42.58
66857;BME280;53766;50.280;19.160;2022-09-24T05:10:31;98416.41;;;19.64;42.86
66857;BME280;53766;50.280;19.160;2022-09-24T05:13:00;98419.31;;;19.62;42.86
66857;BME280;53766;50.280;19.160;2022-09-24T05:15:29;98407.59;;;19.63;42.89
66857;BME280;53766;50.280;19.160;2022-09-24T05:17:57;98412.94;;;19.63;42.72
66857;BME280;53766;50.280;19.160;2022-09-24T05:20:24;98420.94;;;19.63;42.64
66857;BME280;53766;50.280;19.160;2022-09-24T05:22:52;98418.28;;;19.63;42.84
66857;BME280;53766;50.280;19.160;2022-09-24T05:25:20;98420.94;;;19.63;42.63
66857;BME280;53766;50.280;19.160;2022-09-24T05:27:52;98412.94;;;19.63;42.82
66857;BME280;53766;50.280;19.160;2022-09-24T05:30:22;98412.94;;;19.63;42.76
66857;BME280;53766;50.280;19.160;2022-09-24T05:32:50;98418.06;;;19.65;42.72
66857;BME280;53766;50.280;19.160;2022-09-24T05:35:21;98417.25;;;19.64;42.72
66857;BME280;53766;50.280;19.160;2022-09-24T05:37:49;98416.22;;;19.65;42.56
66857;BME280;53766;50.280;19.160;2022-09-24T05:40:20;98415.19;;;19.66;42.70
66857;BME280;53766;50.280;19.160;2022-09-24T05:43:07;98411.47;;;19.67;42.68
66857;BME280;53766;50.280;19.160;2022-09-24T05:45:35;98405.31;;;19.67;42.66
66857;BME280;53766;50.280;19.160;2022-09-24T05:48:02;98416.00;;;19.67;42.60
66857;BME280;53766;50.280;19.160;2022-09-24T05:50:30;98411.47;;;19.67;42.69
66857;BME280;53766;50.280;19.160;2022-09-24T05:53:03;98412.53;;;19.66;42.68
66857;BME280;53766;50.280;19.160;2022-09-24T05:55:30;98415.19;;;19.66;42.56
66857;BME280;53766;50.280;19.160;2022-09-24T05:58:06;98415.19;;;19.66;42.76
66857;BME280;53766;50.280;19.160;2022-09-24T06:00:34;98420.53;;;19.66;42.67
66857;BME280;53766;50.280;19.160;2022-09-24T06:03:09;98412.28;;;19.68;42.60
66857;BME280;53766;50.280;19.160;2022-09-24T06:05:37;98421.34;;;19.67;42.69
66857;BME280;53766;50.280;19.160;2022-09-24T06:08:04;98421.34;;;19.67;42.60
66857;BME280;53766;50.280;19.160;2022-09-24T06:10:33;98416.81;;;19.67;42.49
66857;BME280;53766;50.280;19.160;2022-09-24T06:13:02;98420.53;;;19.66;42.58
66857;BME280;53766;50.280;19.160;2022-09-24T06:15:30;98420.53;;;19.66;42.76
66857;BME280;53766;50.280;19.160;2022-09-24T06:17:58;98424.84;;;19.67;42.79
66857;BME280;53766;50.280;19.160;2022-09-24T06:20:25;98422.16;;;19.67;42.70
66857;BME280;53766;50.280;19.160;2022-09-24T06:22:54;98427.50;;;19.67;42.79
66857;BME280;53766;50.280;19.160;2022-09-24T06:25:24;98427.50;;;19.67;42.76
66857;BME280;53766;50.280;19.160;2022-09-24T06:27:58;98422.16;;;19.67;42.79
66857;BME280;53766;50.280;19.160;2022-09-24T06:30:32;98424.84;;;19.67;42.81
66857;BME280;53766;50.280;19.160;2022-09-24T06:33:06;98429.13;;;19.68;42.94
66857;BME280;53766;50.280;19.160;2022-09-24T06:35:39;98441.50;;;19.69;42.95
66857;BME280;53766;50.280;19.160;2022-09-24T06:38:10;98426.28;;;19.70;42.83
66857;BME280;53766;50.280;19.160;2022-09-24T06:40:39;98441.50;;;19.69;43.02
66857;BME280;53766;50.280;19.160;2022-09-24T06:43:08;98443.13;;;19.70;42.96
66857;BME280;53766;50.280;19.160;2022-09-24T06:45:37;98430.63;;;19.71;42.97
66857;BME280;53766;50.280;19.160;2022-09-24T06:48:04;98440.47;;;19.70;43.22
66857;BME280;53766;50.280;19.160;2022-09-24T06:50:33;98437.78;;;19.70;43.06
66857;BME280;53766;50.280;19.160;2022-09-24T06:53:04;98440.47;;;19.70;42.84
66857;BME280;53766;50.280;19.160;2022-09-24T06:55:34;98436.78;;;19.71;43.21
66857;BME280;53766;50.280;19.160;2022-09-24T06:58:16;98435.13;;;19.70;43.16
66857;BME280;53766;50.280;19.160;2022-09-24T07:00:57;98435.97;;;19.71;43.66
66857;BME280;53766;50.280;19.160;2022-09-24T07:03:27;98434.09;;;19.71;43.94
66857;BME280;53766;50.280;19.160;2022-09-24T07:05:58;98441.31;;;19.71;44.34
66857;BME280;53766;50.280;19.160;2022-09-24T07:08:26;98434.09;;;19.71;44.91
66857;BME280;53766;50.280;19.160;2022-09-24T07:10:54;98443.13;;;19.70;44.93
66857;BME280;53766;50.280;19.160;2022-09-24T07:13:21;98442.31;;;19.70;45.22
66857;BME280;53766;50.280;19.160;2022-09-24T07:15:50;98434.09;;;19.71;44.96
66857;BME280;53766;50.280;19.160;2022-09-24T07:18:19;98435.13;;;19.70;44.85
66857;BME280;53766;50.280;19.160;2022-09-24T07:20:54;98434.91;;;19.72;44.58
66857;BME280;53766;50.280;19.160;2022-09-24T07:23:22;98436.78;;;19.71;44.80
66857;BME280;53766;50.280;19.160;2022-09-24T07:25:54;98431.22;;;19.73;44.49
66857;BME280;53766;50.280;19.160;2022-09-24T07:28:22;98441.91;;;19.73;44.52
66857;BME280;53766;50.280;19.160;2022-09-24T07:30:57;98441.06;;;19.72;44.92
66857;BME280;53766;50.280;19.160;2022-09-24T07:33:26;98444.78;;;19.71;44.90
66857;BME280;53766;50.280;19.160;2022-09-24T07:35:53;98444.78;;;19.71;44.79
66857;BME280;53766;50.280;19.160;2022-09-24T07:38:20;98453.41;;;19.73;44.67
66857;BME280;53766;50.280;19.160;2022-09-24T07:40:49;98448.06;;;19.73;44.94
66857;BME280;53766;50.280;19.160;2022-09-24T07:43:16;98454.22;;;19.74;44.74
66857;BME280;53766;50.280;19.160;2022-09-24T07:45:44;98454.22;;;19.74;44.95
66857;BME280;53766;50.280;19.160;2022-09-24T07:48:12;98459.56;;;19.74;44.75
66857;BME280;53766;50.280;19.160;2022-09-24T07:50:41;98448.06;;;19.73;44.78
66857;BME280;53766;50.280;19.160;2022-09-24T07:53:12;98455.03;;;19.75;45.03
66857;BME280;53766;50.280;19.160;2022-09-24T07:55:41;98462.03;;;19.76;45.02
66857;BME280;53766;50.280;19.160;2022-09-24T07:58:11;98461.22;;;19.75;44.99
66857;BME280;53766;50.280;19.160;2022-09-24T08:00:41;98467.38;;;19.76;44.96
66857;BME280;53766;50.280;19.160;2022-09-24T08:03:09;98459.38;;;19.76;44.76
66857;BME280;53766;50.280;19.160;2022-09-24T08:05:42;98458.13;;;19.78;45.04
66857;BME280;53766;50.280;19.160;2022-09-24T08:08:11;98448.84;;;19.81;45.00
66857;BME280;53766;50.280;19.160;2022-09-24T08:10:39;98461.19;;;19.82;44.93
66857;BME280;53766;50.280;19.160;2022-09-24T08:13:08;98454.81;;;19.83;44.90
66857;BME280;53766;50.280;19.160;2022-09-24T08:15:35;98453.78;;;19.84;44.80
66857;BME280;53766;50.280;19.160;2022-09-24T08:18:03;98451.69;;;19.86;45.05
66857;BME280;53766;50.280;19.160;2022-09-24T08:20:32;98455.41;;;19.85;44.79
66857;BME280;53766;50.280;19.160;2022-09-24T08:23:01;98457.03;;;19.86;44.94
66857;BME280;53766;50.280;19.160;2022-09-24T08:25:29;98455.41;;;19.85;45.09
66857;BME280;53766;50.280;19.160;2022-09-24T08:28:01;98450.88;;;19.85;45.15
66857;BME280;53766;50.280;19.160;2022-09-24T08:30:29;98452.75;;;19.85;45.14
66857;BME280;53766;50.280;19.160;2022-09-24T08:32:57;98458.09;;;19.85;44.92
66857;BME280;53766;50.280;19.160;2022-09-24T08:35:25;98465.06;;;19.86;45.03
66857;BME280;53766;50.280;19.160;2022-09-24T08:37:52;98456.03;;;19.87;45.09
66857;BME280;53766;50.280;19.160;2022-09-24T08:40:22;98459.50;;;19.87;45.07
66857;BME280;53766;50.280;19.160;2022-09-24T08:45:24;98453.34;;;19.87;44.99
66857;BME280;53766;50.280;19.160;2022-09-24T08:48:16;98457.47;;;19.83;45.16
66857;BME280;53766;50.280;19.160;2022-09-24T08:50:51;98458.75;;;19.73;45.21
66857;BME280;53766;50.280;19.160;2022-09-24T08:56:10;98456.78;;;19.49;48.66
66857;BME280;53766;50.280;19.160;2022-09-24T08:59:00;98455.53;;;19.45;44.17
66857;BME280;53766;50.280;19.160;2022-09-24T09:01:44;98450.59;;;19.42;48.06
66857;BME280;53766;50.280;19.160;2022-09-24T09:10:00;98444.03;;;19.38;44.39
66857;BME280;53766;50.280;19.160;2022-09-24T09:12:36;98440.16;;;19.33;47.64
66857;BME280;53766;50.280;19.160;2022-09-24T09:15:11;98444.06;;;19.31;46.16
66857;BME280;53766;50.280;19.160;2022-09-24T09:17:41;98437.72;;;19.32;44.89
66857;BME280;53766;50.280;19.160;2022-09-24T09:20:20;98434.81;;;19.33;45.01
66857;BME280;53766;50.280;19.160;2022-09-24T09:22:51;98427.22;;;19.30;44.56
66857;BME280;53766;50.280;19.160;2022-09-24T09:25:24;98431.34;;;19.26;45.53
66857;BME280;53766;50.280;19.160;2022-09-24T09:28:05;98426.22;;;19.18;45.20
66857;BME280;53766;50.280;19.160;2022-09-24T09:41:46;98406.91;;;19.16;44.20
66857;BME280;53766;50.280;19.160;2022-09-24T09:44:22;98399.75;;;19.17;44.82
66857;BME280;53766;50.280;19.160;2022-09-24T09:47:28;98399.34;;;19.13;43.81
66857;BME280;53766;50.280;19.160;2022-09-24T09:50:12;98401.00;;;19.14;45.44
66857;BME280;53766;50.280;19.160;2022-09-24T09:52:43;98398.09;;;19.16;44.95
66857;BME280;53766;50.280;19.160;2022-09-24T09:55:23;98396.06;;;19.11;44.56
66857;BME280;53766;50.280;19.160;2022-09-24T09:57:51;98394.44;;;19.10;44.31
66857;BME280;53766;50.280;19.160;2022-09-24T10:00:27;98396.88;;;19.05;45.36
66857;BME280;53766;50.280;19.160;2022-09-24T10:02:59;98401.00;;;19.07;45.97
66857;BME280;53766;50.280;19.160;2022-09-24T10:05:27;98400.59;;;19.10;43.66
66857;BME280;53766;50.280;19.160;2022-09-24T10:07:56;98394.84;;;19.07;43.93
66857;BME280;53766;50.280;19.160;2022-09-24T10:10:26;98401.22;;;19.06;44.51
66857;BME280;53766;50.280;19.160;2022-09-24T10:13:06;98397.75;;;19.05;44.70
66857;BME280;53766;50.280;19.160;2022-09-24T10:15:49;98403.66;;;19.07;44.96
66857;BME280;53766;50.280;19.160;2022-09-24T10:20:56;98407.16;;;19.08;44.37
66857;BME280;53766;50.280;19.160;2022-09-24T10:23:34;98403.88;;;19.06;43.82
66857;BME280;53766;50.280;19.160;2022-09-24T10:26:03;98407.97;;;19.08;43.37
66857;BME280;53766;50.280;19.160;2022-09-24T10:28:33;98403.47;;;19.09;43.88
66857;BME280;53766;50.280;19.160;2022-09-24T10:31:24;98399.56;;;19.05;44.92
66857;BME280;53766;50.280;19.160;2022-09-24T10:33:55;98396.50;;;19.08;45.46
66857;BME280;53766;50.280;19.160;2022-09-24T10:36:29;98398.31;;;19.07;43.51
66857;BME280;53766;50.280;19.160;2022-09-24T10:39:07;98390.53;;;19.06;44.05
66857;BME280;53766;50.280;19.160;2022-09-24T10:41:45;98401.00;;;19.07;43.74
66857;BME280;53766;50.280;19.160;2022-09-24T10:44:13;98385.81;;;19.08;43.89
66857;BME280;53766;50.280;19.160;2022-09-24T10:52:52;98386.22;;;19.05;44.09
66857;BME280;53766;50.280;19.160;2022-09-24T10:55:24;98387.44;;;19.09;43.84
66857;BME280;53766;50.280;19.160;2022-09-24T11:06:03;98379.63;;;19.07;43.10
66857;BME280;53766;50.280;19.160;2022-09-24T11:08:50;98373.28;;;19.08;42.92
66857;BME280;53766;50.280;19.160;2022-09-24T11:11:40;98380.03;;;19.11;43.89
66857;BME280;53766;50.280;19.160;2022-09-24T11:17:29;98376.38;;;19.12;42.80
66857;BME280;53766;50.280;19.160;2022-09-24T11:25:33;98366.06;;;19.16;43.01
66857;BME280;53766;50.280;19.160;2022-09-24T11:28:26;98371.00;;;19.19;43.36
66857;BME280;53766;50.280;19.160;2022-09-24T11:31:11;98361.94;;;19.20;43.66
66857;BME280;53766;50.280;19.160;2022-09-24T11:34:14;98367.28;;;19.20;43.58
66857;BME280;53766;50.280;19.160;2022-09-24T11:39:44;98372.41;;;19.21;43.11
66857;BME280;53766;50.280;19.160;2022-09-24T11:51:21;98355.91;;;19.38;41.83
66857;BME280;53766;50.280;19.160;2022-09-24T11:54:02;98353.84;;;19.40;41.89
66857;BME280;53766;50.280;19.160;2022-09-24T11:56:40;98359.81;;;19.42;41.06
66857;BME280;53766;50.280;19.160;2022-09-24T11:59:20;98359.41;;;19.45;42.06
66857;BME280;53766;50.280;19.160;2022-09-24T12:01:53;98364.72;;;19.45;40.93
66857;BME280;53766;50.280;19.160;2022-09-24T12:04:45;98359.41;;;19.45;41.01
66857;BME280;53766;50.280;19.160;2022-09-24T12:07:23;98360.22;;;19.45;41.13
66857;BME280;53766;50.280;19.160;2022-09-24T12:10:23;98355.28;;;19.42;41.08
66857;BME280;53766;50.280;19.160;2022-09-24T12:12:59;98352.41;;;19.44;41.45
66857;BME280;53766;50.280;19.160;2022-09-24T12:15:42;98348.31;;;19.41;41.67
66857;BME280;53766;50.280;19.160;2022-09-24T12:18:17;98348.50;;;19.40;41.71
66857;BME280;53766;50.280;19.160;2022-09-24T12:20:59;98347.91;;;19.38;41.71
66857;BME280;53766;50.280;19.160;2022-09-24T12:23:32;98345.22;;;19.38;41.29
66857;BME280;53766;50.280;19.160;2022-09-24T12:26:02;98350.56;;;19.38;41.32
66857;BME280;53766;50.280;19.160;2022-09-24T12:28:39;98341.94;;;19.36;41.29
66857;BME280;53766;50.280;19.160;2022-09-24T12:37:38;98328.25;;;19.25;39.92
66857;BME280;53766;50.280;19.160;2022-09-24T12:43:25;98329.03;;;19.32;40.06
66857;BME280;53766;50.280;19.160;2022-09-24T12:46:00;98319.97;;;19.33;40.28
66857;BME280;53766;50.280;19.160;2022-09-24T12:48:30;98317.91;;;19.36;40.17
66857;BME280;53766;50.280;19.160;2022-09-24T12:51:05;98322.66;;;19.33;40.42
66857;BME280;53766;50.280;19.160;2022-09-24T12:53:39;98325.31;;;19.33;40.65
66857;BME280;53766;50.280;19.160;2022-09-24T12:56:08;98320.59;;;19.36;40.70
66857;BME280;53766;50.280;19.160;2022-09-24T12:58:41;98318.53;;;19.38;40.61
66857;BME280;53766;50.280;19.160;2022-09-24T13:01:30;98318.75;;;19.36;40.62
66857;BME280;53766;50.280;19.160;2022-09-24T13:06:43;98309.91;;;19.36;40.26
66857;BME280;53766;50.280;19.160;2022-09-24T13:14:32;98302.69;;;19.43;40.69
66857;BME280;53766;50.280;19.160;2022-09-24T13:17:04;98302.69;;;19.43;40.74
66857;BME280;53766;50.280;19.160;2022-09-24T13:19:40;98295.69;;;19.42;41.14
66857;BME280;53766;50.280;19.160;2022-09-24T13:22:36;98288.75;;;19.41;41.16
66857;BME280;53766;50.280;19.160;2022-09-24T13:25:18;98280.88;;;19.46;41.23
66857;BME280;53766;50.280;19.160;2022-09-24T13:28:01;98283.34;;;19.47;41.32
66857;BME280;53766;50.280;19.160;2022-09-24T13:30:36;98278.63;;;19.49;41.49
66857;BME280;53766;50.280;19.160;2022-09-24T13:33:26;98278.00;;;19.47;41.15
66857;BME280;53766;50.280;19.160;2022-09-24T13:35:59;98273.03;;;19.51;41.22
66857;BME280;53766;50.280;19.160;2022-09-24T13:38:32;98268.09;;;19.55;40.69
66857;BME280;53766;50.280;19.160;2022-09-24T13:41:15;98272.63;;;19.54;40.91
66857;BME280;53766;50.280;19.160;2022-09-24T13:43:58;98271.78;;;19.60;40.88
66857;BME280;53766;50.280;19.160;2022-09-24T13:46:27;98267.84;;;19.63;40.98
66857;BME280;53766;50.280;19.160;2022-09-24T13:49:02;98268.66;;;19.63;41.19
66857;BME280;53766;50.280;19.160;2022-09-24T13:51:35;98260.66;;;19.63;40.99
66857;BME280;53766;50.280;19.160;2022-09-24T13:54:16;98262.91;;;19.60;40.89
66857;BME280;53766;50.280;19.160;2022-09-24T13:59:33;98263.31;;;19.63;40.63
66857;BME280;53766;50.280;19.160;2022-09-24T14:02:01;98256.94;;;19.64;40.55
66857;BME280;53766;50.280;19.160;2022-09-24T14:04:29;98254.28;;;19.64;40.37
66857;BME280;53766;50.280;19.160;2022-09-24T14:07:00;98256.09;;;19.64;40.73
66857;BME280;53766;50.280;19.160;2022-09-24T14:09:32;98255.31;;;19.63;40.37
66857;BME280;53766;50.280;19.160;2022-09-24T14:12:15;98248.75;;;19.59;39.86
66857;BME280;53766;50.280;19.160;2022-09-24T14:14:45;98253.28;;;19.59;39.81
66857;BME280;53766;50.280;19.160;2022-09-24T14:17:14;98247.53;;;19.55;39.48
66857;BME280;53766;50.280;19.160;2022-09-24T14:19:42;98250.22;;;19.55;39.84
66857;BME280;53766;50.280;19.160;2022-09-24T14:22:25;98237.91;;;19.54;40.21
66857;BME280;53766;50.280;19.160;2022-09-24T14:27:23;98247.13;;;19.58;41.01
66857;BME280;53766;50.280;19.160;2022-09-24T14:29:57;98239.13;;;19.58;41.40
66857;BME280;53766;50.280;19.160;2022-09-24T14:35:04;98253.22;;;19.65;41.85
66857;BME280;53766;50.280;19.160;2022-09-24T14:37:39;98246.88;;;19.66;42.39
66857;BME280;53766;50.280;19.160;2022-09-24T14:40:14;98240.47;;;19.67;42.51
66857;BME280;53766;50.280;19.160;2022-09-24T14:42:47;98244.78;;;19.68;42.66
66857;BME280;53766;50.280;19.160;2022-09-24T14:45:31;98236.59;;;19.70;42.40
66857;BME280;53766;50.280;19.160;2022-09-24T14:48:16;98244.19;;;19.66;42.12
66857;BME280;53766;50.280;19.160;2022-09-24T14:50:43;98244.63;;;19.63;41.82
66857;BME280;53766;50.280;19.160;2022-09-24T14:53:13;98232.91;;;19.64;41.81
66857;BME280;53766;50.280;19.160;2022-09-24T14:55:45;98233.13;;;19.63;41.59
66857;BME280;53766;50.280;19.160;2022-09-24T15:01:01;98249.34;;;19.61;42.14
66857;BME280;53766;50.280;19.160;2022-09-24T15:06:12;98250.59;;;19.59;42.35
66857;BME280;53766;50.280;19.160;2022-09-24T15:08:41;98241.78;;;19.58;42.63
66857;BME280;53766;50.280;19.160;2022-09-24T15:11:15;98246.69;;;19.61;42.63
66857;BME280;53766;50.280;19.160;2022-09-24T15:13:56;98238.06;;;19.59;42.57
66857;BME280;53766;50.280;19.160;2022-09-24T15:16:31;98238.88;;;19.60;42.54
66857;BME280;53766;50.280;19.160;2022-09-24T15:21:34;98236.66;;;19.57;42.69